sensor_id;sensor_type;location;lat;lon;timestamp;temperature;humidity
30648;DHT22;17683;53.360;9.736;2023-05-10T00:02:07;15.10;81.20
30648;DHT22;17683;53.360;9.736;2023-05-10T00:04:33;15.10;82.00
30648;DHT22;17683;53.360;9.736;2023-05-10T00:06:59;15.10;81.80
30648;DHT22;17683;53.360;9.736;2023-05-10T00:09:24;15.00;82.40
30648;DHT22;17683;53.360;9.736;2023-05-10T00:11:50;15.00;82.40
30648;DHT22;17683;53.360;9.736;2023-05-10T00:14:16;14.90;82.60
30648;DHT22;17683;53.360;9.736;2023-05-10T00:16:42;14.90;83.30
30648;DHT22;17683;53.360;9.736;2023-05-10T00:19:08;14.90;83.10
30648;DHT22;17683;53.360;9.736;2023-05-10T00:21:34;14.80;83.50
30648;DHT22;17683;53.360;9.736;2023-05-10T00:24:00;14.70;83.30
30648;DHT22;17683;53.360;9.736;2023-05-10T00:26:25;14.70;83.70
30648;DHT22;17683;53.360;9.736;2023-05-10T00:28:51;14.70;83.60
30648;DHT22;17683;53.360;9.736;2023-05-10T00:31:17;14.60;84.70
30648;DHT22;17683;53.360;9.736;2023-05-10T00:33:42;14.50;84.00
30648;DHT22;17683;53.360;9.736;2023-05-10T00:36:08;14.50;84.60
30648;DHT22;17683;53.360;9.736;2023-05-10T00:38:34;14.50;85.00
30648;DHT22;17683;53.360;9.736;2023-05-10T00:41:00;14.40;85.20
30648;DHT22;17683;53.360;9.736;2023-05-10T00:43:26;14.50;85.30
30648;DHT22;17683;53.360;9.736;2023-05-10T00:45:52;14.50;85.20
30648;DHT22;17683;53.360;9.736;2023-05-10T00:48:18;14.40;84.80
30648;DHT22;17683;53.360;9.736;2023-05-10T00:50:44;14.40;85.50
30648;DHT22;17683;53.360;9.736;2023-05-10T00:53:10;14.40;85.40
30648;DHT22;17683;53.360;9.736;2023-05-10T00:55:36;14.40;85.50
30648;DHT22;17683;53.360;9.736;2023-05-10T00:58:02;14.30;86.30
30648;DHT22;17683;53.360;9.736;2023-05-10T01:00:28;14.20;86.50
30648;DHT22;17683;53.360;9.736;2023-05-10T01:02:55;14.20;86.20
30648;DHT22;17683;53.360;9.736;2023-05-10T01:05:21;14.10;86.80
30648;DHT22;17683;53.360;9.736;2023-05-10T01:07:47;14.00;87.10
30648;DHT22;17683;53.360;9.736;2023-05-10T01:10:13;14.00;87.30
30648;DHT22;17683;53.360;9.736;2023-05-10T01:12:41;14.00;87.30
30648;DHT22;17683;53.360;9.736;2023-05-10T01:15:09;14.00;87.40
30648;DHT22;17683;53.360;9.736;2023-05-10T01:17:38;13.90;87.90
30648;DHT22;17683;53.360;9.736;2023-05-10T01:20:05;13.90;87.80
30648;DHT22;17683;53.360;9.736;2023-05-10T01:28:42;13.90;88.40
30648;DHT22;17683;53.360;9.736;2023-05-10T01:34:18;13.80;88.70
30648;DHT22;17683;53.360;9.736;2023-05-10T01:36:52;13.70;89.20
30648;DHT22;17683;53.360;9.736;2023-05-10T01:39:44;13.70;88.80
30648;DHT22;17683;53.360;9.736;2023-05-10T01:42:23;13.70;90.00
30648;DHT22;17683;53.360;9.736;2023-05-10T01:47:41;13.60;90.00
30648;DHT22;17683;53.360;9.736;2023-05-10T01:50:15;13.50;90.00
30648;DHT22;17683;53.360;9.736;2023-05-10T01:52:47;13.50;90.20
30648;DHT22;17683;53.360;9.736;2023-05-10T01:55:16;13.50;90.20
30648;DHT22;17683;53.360;9.736;2023-05-10T01:57:44;13.40;90.60
30648;DHT22;17683;53.360;9.736;2023-05-10T02:00:12;13.40;90.60
30648;DHT22;17683;53.360;9.736;2023-05-10T02:02:45;13.40;90.50
30648;DHT22;17683;53.360;9.736;2023-05-10T02:05:13;13.30;90.60
30648;DHT22;17683;53.360;9.736;2023-05-10T02:07:41;13.30;90.50
30648;DHT22;17683;53.360;9.736;2023-05-10T02:10:07;13.30;90.60
30648;DHT22;17683;53.360;9.736;2023-05-10T02:12:47;13.30;90.70
30648;DHT22;17683;53.360;9.736;2023-05-10T02:15:20;13.30;90.90
30648;DHT22;17683;53.360;9.736;2023-05-10T02:17:47;13.30;90.90
30648;DHT22;17683;53.360;9.736;2023-05-10T02:20:13;13.20;91.20
30648;DHT22;17683;53.360;9.736;2023-05-10T02:22:40;13.20;91.20
30648;DHT22;17683;53.360;9.736;2023-05-10T02:25:07;13.10;91.30
30648;DHT22;17683;53.360;9.736;2023-05-10T02:27:34;13.10;91.30
30648;DHT22;17683;53.360;9.736;2023-05-10T02:30:02;13.10;91.30
30648;DHT22;17683;53.360;9.736;2023-05-10T02:32:29;13.20;91.30
30648;DHT22;17683;53.360;9.736;2023-05-10T02:34:56;13.20;91.30
30648;DHT22;17683;53.360;9.736;2023-05-10T02:37:22;13.10;91.60
30648;DHT22;17683;53.360;9.736;2023-05-10T02:39:51;13.00;91.60
30648;DHT22;17683;53.360;9.736;2023-05-10T02:42:19;13.10;91.60
30648;DHT22;17683;53.360;9.736;2023-05-10T02:44:50;13.00;91.90
30648;DHT22;17683;53.360;9.736;2023-05-10T02:47:18;12.90;92.00
30648;DHT22;17683;53.360;9.736;2023-05-10T02:49:44;12.90;92.00
30648;DHT22;17683;53.360;9.736;2023-05-10T02:52:10;12.90;92.00
30648;DHT22;17683;53.360;9.736;2023-05-10T02:54:46;12.90;92.20
30648;DHT22;17683;53.360;9.736;2023-05-10T02:57:16;12.90;92.10
30648;DHT22;17683;53.360;9.736;2023-05-10T02:59:43;12.90;92.40
30648;DHT22;17683;53.360;9.736;2023-05-10T03:02:12;12.80;92.50
30648;DHT22;17683;53.360;9.736;2023-05-10T03:04:37;12.80;92.40
30648;DHT22;17683;53.360;9.736;2023-05-10T03:07:03;12.80;92.50
30648;DHT22;17683;53.360;9.736;2023-05-10T03:09:30;12.80;92.50
30648;DHT22;17683;53.360;9.736;2023-05-10T03:12:27;12.80;92.60
30648;DHT22;17683;53.360;9.736;2023-05-10T03:17:57;12.80;92.90
30648;DHT22;17683;53.360;9.736;2023-05-10T03:20:43;12.80;93.00
30648;DHT22;17683;53.360;9.736;2023-05-10T03:23:20;12.80;93.00
30648;DHT22;17683;53.360;9.736;2023-05-10T03:25:48;12.70;93.00
30648;DHT22;17683;53.360;9.736;2023-05-10T03:28:15;12.70;93.20
30648;DHT22;17683;53.360;9.736;2023-05-10T03:30:43;12.70;93.00
30648;DHT22;17683;53.360;9.736;2023-05-10T03:33:09;12.70;93.40
30648;DHT22;17683;53.360;9.736;2023-05-10T03:35:35;12.70;93.40
30648;DHT22;17683;53.360;9.736;2023-05-10T03:38:00;12.70;93.40
30648;DHT22;17683;53.360;9.736;2023-05-10T03:40:27;12.70;93.40
30648;DHT22;17683;53.360;9.736;2023-05-10T03:43:00;12.60;93.50
30648;DHT22;17683;53.360;9.736;2023-05-10T03:45:26;12.70;93.70
30648;DHT22;17683;53.360;9.736;2023-05-10T03:47:52;12.70;93.60
30648;DHT22;17683;53.360;9.736;2023-05-10T03:50:19;12.70;93.60
30648;DHT22;17683;53.360;9.736;2023-05-10T03:52:45;12.70;93.50
30648;DHT22;17683;53.360;9.736;2023-05-10T03:55:11;12.70;93.80
30648;DHT22;17683;53.360;9.736;2023-05-10T03:57:37;12.70;93.90
30648;DHT22;17683;53.360;9.736;2023-05-10T04:00:04;12.70;94.00
30648;DHT22;17683;53.360;9.736;2023-05-10T04:02:29;12.70;94.00
30648;DHT22;17683;53.360;9.736;2023-05-10T04:04:56;12.70;94.20
30648;DHT22;17683;53.360;9.736;2023-05-10T04:07:22;12.70;94.20
30648;DHT22;17683;53.360;9.736;2023-05-10T04:09:47;12.80;94.10
30648;DHT22;17683;53.360;9.736;2023-05-10T04:12:13;12.80;94.20
30648;DHT22;17683;53.360;9.736;2023-05-10T04:14:39;12.80;94.30
30648;DHT22;17683;53.360;9.736;2023-05-10T04:17:05;12.80;94.30
30648;DHT22;17683;53.360;9.736;2023-05-10T04:19:31;12.80;94.20
30648;DHT22;17683;53.360;9.736;2023-05-10T04:21:57;12.80;94.40
30648;DHT22;17683;53.360;9.736;2023-05-10T04:24:23;12.80;94.40
30648;DHT22;17683;53.360;9.736;2023-05-10T04:26:49;12.80;94.40
30648;DHT22;17683;53.360;9.736;2023-05-10T04:29:14;12.80;94.40
30648;DHT22;17683;53.360;9.736;2023-05-10T04:31:40;12.90;94.60
30648;DHT22;17683;53.360;9.736;2023-05-10T04:34:06;12.90;94.60
30648;DHT22;17683;53.360;9.736;2023-05-10T04:36:31;12.90;94.60
30648;DHT22;17683;53.360;9.736;2023-05-10T04:39:02;12.90;94.60
30648;DHT22;17683;53.360;9.736;2023-05-10T04:41:29;12.90;94.50
30648;DHT22;17683;53.360;9.736;2023-05-10T04:43:55;13.00;94.60
30648;DHT22;17683;53.360;9.736;2023-05-10T04:46:20;13.00;94.80
30648;DHT22;17683;53.360;9.736;2023-05-10T04:48:47;13.00;94.80
30648;DHT22;17683;53.360;9.736;2023-05-10T04:51:12;13.00;94.80
30648;DHT22;17683;53.360;9.736;2023-05-10T04:53:38;13.00;94.90
30648;DHT22;17683;53.360;9.736;2023-05-10T04:56:04;13.10;94.80
30648;DHT22;17683;53.360;9.736;2023-05-10T04:58:30;13.10;95.00
30648;DHT22;17683;53.360;9.736;2023-05-10T05:00:56;13.10;94.80
30648;DHT22;17683;53.360;9.736;2023-05-10T05:03:22;13.10;94.90
30648;DHT22;17683;53.360;9.736;2023-05-10T05:05:48;13.20;94.70
30648;DHT22;17683;53.360;9.736;2023-05-10T05:08:13;13.20;95.10
30648;DHT22;17683;53.360;9.736;2023-05-10T05:10:40;13.20;94.90
30648;DHT22;17683;53.360;9.736;2023-05-10T05:13:05;13.20;95.10
30648;DHT22;17683;53.360;9.736;2023-05-10T05:15:31;13.30;95.00
30648;DHT22;17683;53.360;9.736;2023-05-10T05:17:57;13.30;95.00
30648;DHT22;17683;53.360;9.736;2023-05-10T05:20:23;13.40;95.10
30648;DHT22;17683;53.360;9.736;2023-05-10T05:22:48;13.40;94.90
30648;DHT22;17683;53.360;9.736;2023-05-10T05:25:14;13.30;94.90
30648;DHT22;17683;53.360;9.736;2023-05-10T05:27:41;13.30;95.00
30648;DHT22;17683;53.360;9.736;2023-05-10T05:30:07;13.30;95.40
30648;DHT22;17683;53.360;9.736;2023-05-10T05:32:33;13.30;95.60
30648;DHT22;17683;53.360;9.736;2023-05-10T05:34:59;13.30;95.60
30648;DHT22;17683;53.360;9.736;2023-05-10T05:37:25;13.40;95.30
30648;DHT22;17683;53.360;9.736;2023-05-10T05:39:51;13.40;95.60
30648;DHT22;17683;53.360;9.736;2023-05-10T05:42:16;13.50;95.70
30648;DHT22;17683;53.360;9.736;2023-05-10T05:44:44;13.60;95.70
30648;DHT22;17683;53.360;9.736;2023-05-10T05:47:10;13.60;95.50
30648;DHT22;17683;53.360;9.736;2023-05-10T05:49:36;13.60;95.70
30648;DHT22;17683;53.360;9.736;2023-05-10T05:52:02;13.60;95.90
30648;DHT22;17683;53.360;9.736;2023-05-10T05:54:29;13.80;95.90
30648;DHT22;17683;53.360;9.736;2023-05-10T05:56:56;13.80;95.80
30648;DHT22;17683;53.360;9.736;2023-05-10T05:59:22;13.90;95.90
30648;DHT22;17683;53.360;9.736;2023-05-10T06:01:48;14.00;96.10
30648;DHT22;17683;53.360;9.736;2023-05-10T06:04:14;14.10;96.20
30648;DHT22;17683;53.360;9.736;2023-05-10T06:06:40;14.10;95.40
30648;DHT22;17683;53.360;9.736;2023-05-10T06:09:05;14.20;95.50
30648;DHT22;17683;53.360;9.736;2023-05-10T06:11:31;14.30;95.20
30648;DHT22;17683;53.360;9.736;2023-05-10T06:14:00;14.40;95.40
30648;DHT22;17683;53.360;9.736;2023-05-10T06:16:27;14.40;95.40
30648;DHT22;17683;53.360;9.736;2023-05-10T06:18:52;14.50;95.20
30648;DHT22;17683;53.360;9.736;2023-05-10T06:21:18;14.50;95.20
30648;DHT22;17683;53.360;9.736;2023-05-10T06:23:44;14.50;95.20
30648;DHT22;17683;53.360;9.736;2023-05-10T06:26:10;14.50;95.50
30648;DHT22;17683;53.360;9.736;2023-05-10T06:28:36;14.50;95.30
30648;DHT22;17683;53.360;9.736;2023-05-10T06:31:04;14.60;95.40
30648;DHT22;17683;53.360;9.736;2023-05-10T06:33:30;14.70;95.70
30648;DHT22;17683;53.360;9.736;2023-05-10T06:35:56;14.80;95.90
30648;DHT22;17683;53.360;9.736;2023-05-10T06:38:23;14.90;95.30
30648;DHT22;17683;53.360;9.736;2023-05-10T06:40:48;15.00;94.90
30648;DHT22;17683;53.360;9.736;2023-05-10T06:43:14;15.00;94.70
30648;DHT22;17683;53.360;9.736;2023-05-10T06:45:40;15.00;94.50
30648;DHT22;17683;53.360;9.736;2023-05-10T06:48:06;15.00;94.50
30648;DHT22;17683;53.360;9.736;2023-05-10T06:50:33;15.00;94.60
30648;DHT22;17683;53.360;9.736;2023-05-10T06:52:59;15.10;94.90
30648;DHT22;17683;53.360;9.736;2023-05-10T06:55:25;15.00;94.60
30648;DHT22;17683;53.360;9.736;2023-05-10T06:57:51;15.10;94.70
30648;DHT22;17683;53.360;9.736;2023-05-10T07:00:18;15.10;94.70
30648;DHT22;17683;53.360;9.736;2023-05-10T07:02:45;15.10;94.70
30648;DHT22;17683;53.360;9.736;2023-05-10T07:05:11;15.20;94.80
30648;DHT22;17683;53.360;9.736;2023-05-10T07:07:37;15.30;94.90
30648;DHT22;17683;53.360;9.736;2023-05-10T07:10:03;15.20;94.80
30648;DHT22;17683;53.360;9.736;2023-05-10T07:12:29;15.10;94.90
30648;DHT22;17683;53.360;9.736;2023-05-10T07:14:55;15.20;95.00
30648;DHT22;17683;53.360;9.736;2023-05-10T07:17:21;15.10;94.90
30648;DHT22;17683;53.360;9.736;2023-05-10T07:19:46;15.20;95.50
30648;DHT22;17683;53.360;9.736;2023-05-10T07:22:12;15.10;95.60
30648;DHT22;17683;53.360;9.736;2023-05-10T07:24:38;15.10;95.90
30648;DHT22;17683;53.360;9.736;2023-05-10T07:27:04;15.10;96.40
30648;DHT22;17683;53.360;9.736;2023-05-10T07:29:30;15.10;96.80
30648;DHT22;17683;53.360;9.736;2023-05-10T07:31:56;15.00;97.20
30648;DHT22;17683;53.360;9.736;2023-05-10T07:34:22;14.90;97.60
30648;DHT22;17683;53.360;9.736;2023-05-10T07:36:47;15.00;97.70
30648;DHT22;17683;53.360;9.736;2023-05-10T07:39:13;15.00;98.10
30648;DHT22;17683;53.360;9.736;2023-05-10T07:41:39;15.00;98.40
30648;DHT22;17683;53.360;9.736;2023-05-10T07:44:05;15.00;98.80
30648;DHT22;17683;53.360;9.736;2023-05-10T07:46:31;15.00;98.50
30648;DHT22;17683;53.360;9.736;2023-05-10T07:48:57;15.00;99.10
30648;DHT22;17683;53.360;9.736;2023-05-10T07:51:22;15.00;98.20
30648;DHT22;17683;53.360;9.736;2023-05-10T07:53:48;15.10;98.80
30648;DHT22;17683;53.360;9.736;2023-05-10T07:56:28;15.10;98.80
30648;DHT22;17683;53.360;9.736;2023-05-10T07:59:02;15.10;98.50
30648;DHT22;17683;53.360;9.736;2023-05-10T08:01:33;15.00;98.70
30648;DHT22;17683;53.360;9.736;2023-05-10T08:03:59;15.00;99.30
30648;DHT22;17683;53.360;9.736;2023-05-10T08:06:26;15.00;99.90
30648;DHT22;17683;53.360;9.736;2023-05-10T08:08:53;15.10;99.90
30648;DHT22;17683;53.360;9.736;2023-05-10T08:11:20;15.10;99.70
30648;DHT22;17683;53.360;9.736;2023-05-10T08:13:46;15.10;99.90
30648;DHT22;17683;53.360;9.736;2023-05-10T08:16:13;15.10;99.90
30648;DHT22;17683;53.360;9.736;2023-05-10T08:18:38;15.10;99.90
30648;DHT22;17683;53.360;9.736;2023-05-10T08:21:05;15.00;99.90
30648;DHT22;17683;53.360;9.736;2023-05-10T08:23:30;15.10;99.90
30648;DHT22;17683;53.360;9.736;2023-05-10T08:25:56;15.10;99.90
30648;DHT22;17683;53.360;9.736;2023-05-10T08:28:22;15.20;99.90
30648;DHT22;17683;53.360;9.736;2023-05-10T08:30:50;15.30;99.90
30648;DHT22;17683;53.360;9.736;2023-05-10T08:33:17;15.20;99.90
30648;DHT22;17683;53.360;9.736;2023-05-10T08:35:42;15.20;99.90
30648;DHT22;17683;53.360;9.736;2023-05-10T08:38:08;15.20;99.90
30648;DHT22;17683;53.360;9.736;2023-05-10T08:40:34;15.20;99.90
30648;DHT22;17683;53.360;9.736;2023-05-10T08:43:06;15.20;99.90
30648;DHT22;17683;53.360;9.736;2023-05-10T08:45:37;15.20;99.90
30648;DHT22;17683;53.360;9.736;2023-05-10T08:48:05;15.10;99.90
30648;DHT22;17683;53.360;9.736;2023-05-10T08:50:31;15.00;99.90
30648;DHT22;17683;53.360;9.736;2023-05-10T08:53:00;14.90;99.90
30648;DHT22;17683;53.360;9.736;2023-05-10T08:55:27;14.70;99.90
30648;DHT22;17683;53.360;9.736;2023-05-10T08:57:53;14.70;99.90
30648;DHT22;17683;53.360;9.736;2023-05-10T09:00:19;14.60;99.90
30648;DHT22;17683;53.360;9.736;2023-05-10T09:02:45;14.60;99.90
30648;DHT22;17683;53.360;9.736;2023-05-10T09:05:12;14.50;99.90
30648;DHT22;17683;53.360;9.736;2023-05-10T09:07:38;14.40;99.90
30648;DHT22;17683;53.360;9.736;2023-05-10T09:10:05;14.30;99.90
30648;DHT22;17683;53.360;9.736;2023-05-10T09:12:31;14.30;99.90
30648;DHT22;17683;53.360;9.736;2023-05-10T09:14:58;14.20;99.90
30648;DHT22;17683;53.360;9.736;2023-05-10T09:17:25;14.20;99.90
30648;DHT22;17683;53.360;9.736;2023-05-10T09:20:02;14.20;99.90
30648;DHT22;17683;53.360;9.736;2023-05-10T09:22:30;14.20;99.90
30648;DHT22;17683;53.360;9.736;2023-05-10T09:25:09;14.30;99.90
30648;DHT22;17683;53.360;9.736;2023-05-10T09:27:36;14.30;99.90
30648;DHT22;17683;53.360;9.736;2023-05-10T09:30:03;14.20;99.90
30648;DHT22;17683;53.360;9.736;2023-05-10T09:32:40;14.10;99.90
30648;DHT22;17683;53.360;9.736;2023-05-10T09:37:43;14.00;99.90
30648;DHT22;17683;53.360;9.736;2023-05-10T09:40:16;14.00;99.90
30648;DHT22;17683;53.360;9.736;2023-05-10T09:42:50;14.00;99.90
30648;DHT22;17683;53.360;9.736;2023-05-10T09:45:16;14.00;99.90
30648;DHT22;17683;53.360;9.736;2023-05-10T09:47:41;13.90;99.90
30648;DHT22;17683;53.360;9.736;2023-05-10T09:50:09;13.90;99.90
30648;DHT22;17683;53.360;9.736;2023-05-10T09:52:55;14.00;99.90
30648;DHT22;17683;53.360;9.736;2023-05-10T09:55:46;13.90;99.90
30648;DHT22;17683;53.360;9.736;2023-05-10T09:58:14;13.90;99.90
30648;DHT22;17683;53.360;9.736;2023-05-10T10:00:42;13.90;99.90
30648;DHT22;17683;53.360;9.736;2023-05-10T10:03:16;14.00;99.90
30648;DHT22;17683;53.360;9.736;2023-05-10T10:05:43;14.00;99.90
30648;DHT22;17683;53.360;9.736;2023-05-10T10:08:10;13.90;99.90
30648;DHT22;17683;53.360;9.736;2023-05-10T10:10:36;13.90;99.90
30648;DHT22;17683;53.360;9.736;2023-05-10T10:13:02;14.00;99.90
30648;DHT22;17683;53.360;9.736;2023-05-10T10:15:28;14.00;99.90
30648;DHT22;17683;53.360;9.736;2023-05-10T10:17:54;14.00;99.90
30648;DHT22;17683;53.360;9.736;2023-05-10T10:20:21;13.90;99.90
30648;DHT22;17683;53.360;9.736;2023-05-10T10:22:48;14.00;99.90
30648;DHT22;17683;53.360;9.736;2023-05-10T10:25:15;14.00;99.90
30648;DHT22;17683;53.360;9.736;2023-05-10T10:36:03;14.10;99.90
30648;DHT22;17683;53.360;9.736;2023-05-10T10:41:57;14.00;99.90
30648;DHT22;17683;53.360;9.736;2023-05-10T10:52:21;14.10;99.90
30648;DHT22;17683;53.360;9.736;2023-05-10T10:55:13;14.20;99.90
30648;DHT22;17683;53.360;9.736;2023-05-10T11:08:28;14.60;99.90
30648;DHT22;17683;53.360;9.736;2023-05-10T11:11:06;14.60;99.90
30648;DHT22;17683;53.360;9.736;2023-05-10T11:16:21;14.70;99.90
30648;DHT22;17683;53.360;9.736;2023-05-10T11:21:23;15.00;99.90
30648;DHT22;17683;53.360;9.736;2023-05-10T11:23:51;15.10;99.90
30648;DHT22;17683;53.360;9.736;2023-05-10T11:26:17;15.20;99.90
30648;DHT22;17683;53.360;9.736;2023-05-10T11:28:48;15.30;99.90
30648;DHT22;17683;53.360;9.736;2023-05-10T11:31:18;15.40;99.90
30648;DHT22;17683;53.360;9.736;2023-05-10T11:33:45;15.40;99.90
30648;DHT22;17683;53.360;9.736;2023-05-10T11:36:16;15.50;99.90
30648;DHT22;17683;53.360;9.736;2023-05-10T11:38:43;15.50;99.90
30648;DHT22;17683;53.360;9.736;2023-05-10T11:41:12;15.60;99.90
30648;DHT22;17683;53.360;9.736;2023-05-10T11:43:42;15.50;99.90
30648;DHT22;17683;53.360;9.736;2023-05-10T11:46:10;15.60;99.90
30648;DHT22;17683;53.360;9.736;2023-05-10T11:48:36;15.60;99.90
30648;DHT22;17683;53.360;9.736;2023-05-10T11:51:03;15.70;99.90
30648;DHT22;17683;53.360;9.736;2023-05-10T11:53:31;15.80;99.90
30648;DHT22;17683;53.360;9.736;2023-05-10T11:56:05;15.70;99.90
30648;DHT22;17683;53.360;9.736;2023-05-10T11:58:32;15.70;99.90
30648;DHT22;17683;53.360;9.736;2023-05-10T12:00:59;15.70;99.90
30648;DHT22;17683;53.360;9.736;2023-05-10T12:03:29;15.70;99.90
30648;DHT22;17683;53.360;9.736;2023-05-10T12:05:56;15.70;99.90
30648;DHT22;17683;53.360;9.736;2023-05-10T12:08:26;15.70;99.90
30648;DHT22;17683;53.360;9.736;2023-05-10T12:11:03;15.80;99.90
30648;DHT22;17683;53.360;9.736;2023-05-10T12:13:29;15.70;99.90
30648;DHT22;17683;53.360;9.736;2023-05-10T12:15:57;15.80;99.90
30648;DHT22;17683;53.360;9.736;2023-05-10T12:18:23;15.90;99.90
30648;DHT22;17683;53.360;9.736;2023-05-10T12:20:53;15.90;99.90
30648;DHT22;17683;53.360;9.736;2023-05-10T12:23:21;16.00;99.90
30648;DHT22;17683;53.360;9.736;2023-05-10T12:25:47;16.10;99.90
30648;DHT22;17683;53.360;9.736;2023-05-10T12:28:12;16.20;99.90
30648;DHT22;17683;53.360;9.736;2023-05-10T12:30:38;16.30;99.90
30648;DHT22;17683;53.360;9.736;2023-05-10T12:35:33;16.50;99.90
30648;DHT22;17683;53.360;9.736;2023-05-10T12:37:59;16.40;99.90
30648;DHT22;17683;53.360;9.736;2023-05-10T12:40:25;16.40;99.90
30648;DHT22;17683;53.360;9.736;2023-05-10T12:42:51;16.40;99.90
30648;DHT22;17683;53.360;9.736;2023-05-10T12:45:18;16.40;99.90
30648;DHT22;17683;53.360;9.736;2023-05-10T12:47:44;16.40;99.90
30648;DHT22;17683;53.360;9.736;2023-05-10T12:50:10;16.30;99.90
30648;DHT22;17683;53.360;9.736;2023-05-10T12:52:36;16.30;99.90
30648;DHT22;17683;53.360;9.736;2023-05-10T12:55:02;16.40;99.90
30648;DHT22;17683;53.360;9.736;2023-05-10T12:57:28;16.30;99.90
30648;DHT22;17683;53.360;9.736;2023-05-10T12:59:55;16.40;99.90
30648;DHT22;17683;53.360;9.736;2023-05-10T13:02:21;16.40;99.90
30648;DHT22;17683;53.360;9.736;2023-05-10T13:04:48;16.50;99.90
30648;DHT22;17683;53.360;9.736;2023-05-10T13:07:14;16.50;99.90
30648;DHT22;17683;53.360;9.736;2023-05-10T13:09:40;16.70;99.90
30648;DHT22;17683;53.360;9.736;2023-05-10T13:12:06;16.80;99.90
30648;DHT22;17683;53.360;9.736;2023-05-10T13:14:32;16.80;99.90
30648;DHT22;17683;53.360;9.736;2023-05-10T13:16:57;16.90;99.90
30648;DHT22;17683;53.360;9.736;2023-05-10T13:19:23;17.00;99.90
30648;DHT22;17683;53.360;9.736;2023-05-10T13:21:49;17.00;99.90
30648;DHT22;17683;53.360;9.736;2023-05-10T13:24:14;17.00;99.90
30648;DHT22;17683;53.360;9.736;2023-05-10T13:26:40;17.10;99.90
30648;DHT22;17683;53.360;9.736;2023-05-10T13:29:07;17.10;99.90
30648;DHT22;17683;53.360;9.736;2023-05-10T13:31:33;17.10;99.90
30648;DHT22;17683;53.360;9.736;2023-05-10T13:33:59;17.00;99.90
30648;DHT22;17683;53.360;9.736;2023-05-10T13:36:25;17.00;99.90
30648;DHT22;17683;53.360;9.736;2023-05-10T13:38:50;17.10;99.90
30648;DHT22;17683;53.360;9.736;2023-05-10T13:41:16;17.00;99.90
30648;DHT22;17683;53.360;9.736;2023-05-10T13:43:42;17.00;99.90
30648;DHT22;17683;53.360;9.736;2023-05-10T13:46:08;17.10;99.90
30648;DHT22;17683;53.360;9.736;2023-05-10T13:48:33;17.10;99.90
30648;DHT22;17683;53.360;9.736;2023-05-10T13:50:59;17.20;99.90
30648;DHT22;17683;53.360;9.736;2023-05-10T13:53:25;17.20;99.90
30648;DHT22;17683;53.360;9.736;2023-05-10T13:55:50;17.40;99.90
30648;DHT22;17683;53.360;9.736;2023-05-10T13:58:16;17.40;99.90
30648;DHT22;17683;53.360;9.736;2023-05-10T14:00:42;17.60;99.90
30648;DHT22;17683;53.360;9.736;2023-05-10T14:03:07;17.70;99.90
30648;DHT22;17683;53.360;9.736;2023-05-10T14:05:36;17.80;99.90
30648;DHT22;17683;53.360;9.736;2023-05-10T14:08:01;17.90;99.90
30648;DHT22;17683;53.360;9.736;2023-05-10T14:10:29;18.00;99.90
30648;DHT22;17683;53.360;9.736;2023-05-10T14:12:55;18.00;99.90
30648;DHT22;17683;53.360;9.736;2023-05-10T14:15:21;18.00;99.90
30648;DHT22;17683;53.360;9.736;2023-05-10T14:17:46;18.10;99.90
30648;DHT22;17683;53.360;9.736;2023-05-10T14:20:12;18.20;99.90
30648;DHT22;17683;53.360;9.736;2023-05-10T14:22:38;18.20;99.90
30648;DHT22;17683;53.360;9.736;2023-05-10T14:25:03;18.00;99.90
30648;DHT22;17683;53.360;9.736;2023-05-10T14:27:29;17.90;99.90
30648;DHT22;17683;53.360;9.736;2023-05-10T14:29:55;17.70;99.90
30648;DHT22;17683;53.360;9.736;2023-05-10T14:32:21;17.50;99.90
30648;DHT22;17683;53.360;9.736;2023-05-10T14:34:47;17.50;99.90
30648;DHT22;17683;53.360;9.736;2023-05-10T14:37:14;17.40;99.90
30648;DHT22;17683;53.360;9.736;2023-05-10T14:39:40;17.40;99.90
30648;DHT22;17683;53.360;9.736;2023-05-10T14:42:07;17.30;99.90
30648;DHT22;17683;53.360;9.736;2023-05-10T14:44:34;17.30;99.90
30648;DHT22;17683;53.360;9.736;2023-05-10T14:46:59;17.30;99.90
30648;DHT22;17683;53.360;9.736;2023-05-10T14:49:25;17.20;99.90
30648;DHT22;17683;53.360;9.736;2023-05-10T14:51:51;17.20;99.90
30648;DHT22;17683;53.360;9.736;2023-05-10T14:54:17;17.10;99.90
30648;DHT22;17683;53.360;9.736;2023-05-10T14:56:43;17.10;99.90
30648;DHT22;17683;53.360;9.736;2023-05-10T14:59:09;17.10;99.90
30648;DHT22;17683;53.360;9.736;2023-05-10T15:01:35;17.10;99.90
30648;DHT22;17683;53.360;9.736;2023-05-10T15:04:03;17.20;99.90
30648;DHT22;17683;53.360;9.736;2023-05-10T15:06:33;17.20;99.90
30648;DHT22;17683;53.360;9.736;2023-05-10T15:09:01;17.20;99.90
30648;DHT22;17683;53.360;9.736;2023-05-10T15:11:27;17.30;99.90
30648;DHT22;17683;53.360;9.736;2023-05-10T15:13:53;17.40;99.90
30648;DHT22;17683;53.360;9.736;2023-05-10T15:16:19;17.40;99.90
30648;DHT22;17683;53.360;9.736;2023-05-10T15:18:45;17.50;99.90
30648;DHT22;17683;53.360;9.736;2023-05-10T15:21:11;17.50;99.90
30648;DHT22;17683;53.360;9.736;2023-05-10T15:23:37;17.60;99.90
30648;DHT22;17683;53.360;9.736;2023-05-10T15:26:03;17.60;99.90
30648;DHT22;17683;53.360;9.736;2023-05-10T15:28:28;17.60;99.90
30648;DHT22;17683;53.360;9.736;2023-05-10T15:30:55;17.60;99.90
30648;DHT22;17683;53.360;9.736;2023-05-10T15:33:21;17.60;99.90
30648;DHT22;17683;53.360;9.736;2023-05-10T15:35:47;17.60;99.90
30648;DHT22;17683;53.360;9.736;2023-05-10T15:38:13;17.60;99.90
30648;DHT22;17683;53.360;9.736;2023-05-10T15:40:38;17.60;99.90
30648;DHT22;17683;53.360;9.736;2023-05-10T15:43:04;17.60;99.90
30648;DHT22;17683;53.360;9.736;2023-05-10T15:45:32;17.60;99.90
30648;DHT22;17683;53.360;9.736;2023-05-10T15:47:58;17.50;99.90
30648;DHT22;17683;53.360;9.736;2023-05-10T15:50:27;17.40;99.90
30648;DHT22;17683;53.360;9.736;2023-05-10T15:52:53;17.30;99.90
30648;DHT22;17683;53.360;9.736;2023-05-10T15:55:19;17.30;99.90
30648;DHT22;17683;53.360;9.736;2023-05-10T15:57:45;17.20;99.90
30648;DHT22;17683;53.360;9.736;2023-05-10T16:00:11;17.20;99.90
30648;DHT22;17683;53.360;9.736;2023-05-10T16:02:40;17.20;99.90
30648;DHT22;17683;53.360;9.736;2023-05-10T16:05:06;17.20;99.90
30648;DHT22;17683;53.360;9.736;2023-05-10T16:07:32;17.20;99.90
30648;DHT22;17683;53.360;9.736;2023-05-10T16:09:58;17.20;99.90
30648;DHT22;17683;53.360;9.736;2023-05-10T16:12:26;17.20;99.90
30648;DHT22;17683;53.360;9.736;2023-05-10T16:14:52;17.20;99.90
30648;DHT22;17683;53.360;9.736;2023-05-10T16:17:18;17.20;99.90
30648;DHT22;17683;53.360;9.736;2023-05-10T16:19:44;17.20;99.90
30648;DHT22;17683;53.360;9.736;2023-05-10T16:22:11;17.20;99.90
30648;DHT22;17683;53.360;9.736;2023-05-10T16:24:36;17.30;99.90
30648;DHT22;17683;53.360;9.736;2023-05-10T16:27:02;17.20;99.90